sensor_id;sensor_type;location;lat;lon;timestamp;pressure;altitude;pressure_sealevel;temperature;humidity
58070;BME280;43863;52.256;21.048;2023-01-29T11:00:37;101076.91;;;3.48;65.57
58070;BME280;43863;52.256;21.048;2023-01-29T11:11:17;101062.81;;;3.84;64.33
58070;BME280;43863;52.256;21.048;2023-01-29T11:14:03;101054.97;;;3.96;64.11
58070;BME280;43863;52.256;21.048;2023-01-29T11:16:58;101055.47;;;4.01;63.74
58070;BME280;43863;52.256;21.048;2023-01-29T11:19:38;101046.84;;;3.87;63.53
58070;BME280;43863;52.256;21.048;2023-01-29T11:22:17;101045.41;;;3.95;63.58
58070;BME280;43863;52.256;21.048;2023-01-29T11:25:16;101035.28;;;4.13;63.08
58070;BME280;43863;52.256;21.048;2023-01-29T11:27:54;101029.56;;;4.19;63.21
58070;BME280;43863;52.256;21.048;2023-01-29T11:30:31;101018.69;;;4.23;62.89
58070;BME280;43863;52.256;21.048;2023-01-29T11:35:47;101003.84;;;4.22;62.72
58070;BME280;43863;52.256;21.048;2023-01-29T11:40:43;100989.97;;;4.31;62.27
58070;BME280;43863;52.256;21.048;2023-01-29T11:43:29;100995.72;;;4.37;61.86
58070;BME280;43863;52.256;21.048;2023-01-29T11:46:22;100988.44;;;4.29;61.91
58070;BME280;43863;52.256;21.048;2023-01-29T11:48:54;100976.38;;;4.15;61.92
58070;BME280;43863;52.256;21.048;2023-01-29T11:51:32;100974.81;;;4.13;62.27
58070;BME280;43863;52.256;21.048;2023-01-29T11:54:04;100975.53;;;4.15;62.13
58070;BME280;43863;52.256;21.048;2023-01-29T11:56:41;100972.28;;;4.22;61.74
58070;BME280;43863;52.256;21.048;2023-01-29T11:59:42;100969.69;;;4.00;62.01
58070;BME280;43863;52.256;21.048;2023-01-29T12:02:35;100967.03;;;4.00;62.34
58070;BME280;43863;52.256;21.048;2023-01-29T12:05:33;100965.59;;;4.07;62.11
58070;BME280;43863;52.256;21.048;2023-01-29T12:08:21;100962.97;;;4.07;61.68
58070;BME280;43863;52.256;21.048;2023-01-29T12:11:17;100959.25;;;3.98;61.95
58070;BME280;43863;52.256;21.048;2023-01-29T12:20:03;100942.06;;;3.83;62.51
58070;BME280;43863;52.256;21.048;2023-01-29T12:38:48;100921.16;;;3.70;63.15
58070;BME280;43863;52.256;21.048;2023-01-29T12:44:18;100924.25;;;3.64;63.29
58070;BME280;43863;52.256;21.048;2023-01-29T12:47:20;100916.47;;;3.62;63.24
58070;BME280;43863;52.256;21.048;2023-01-29T12:50:01;100912.88;;;3.63;63.49
58070;BME280;43863;52.256;21.048;2023-01-29T12:53:02;100906.81;;;3.63;63.47
58070;BME280;43863;52.256;21.048;2023-01-29T12:55:40;100888.75;;;3.36;63.67
58070;BME280;43863;52.256;21.048;2023-01-29T12:58:47;100888.63;;;3.37;63.91
58070;BME280;43863;52.256;21.048;2023-01-29T13:01:37;100889.47;;;3.38;63.97
58070;BME280;43863;52.256;21.048;2023-01-29T13:06:54;100906.53;;;3.55;63.96
58070;BME280;43863;52.256;21.048;2023-01-29T13:09:29;100905.25;;;3.60;63.84
58070;BME280;43863;52.256;21.048;2023-01-29T13:12:08;100900.09;;;3.48;64.08
58070;BME280;43863;52.256;21.048;2023-01-29T13:14:58;100917.91;;;3.55;64.23
58070;BME280;43863;52.256;21.048;2023-01-29T13:17:35;100916.31;;;3.41;64.49
58070;BME280;43863;52.256;21.048;2023-01-29T13:20:15;100910.59;;;3.48;64.51
58070;BME280;43863;52.256;21.048;2023-01-29T13:22:46;100913.97;;;3.50;64.46
58070;BME280;43863;52.256;21.048;2023-01-29T13:25:18;100907.97;;;3.48;64.87
58070;BME280;43863;52.256;21.048;2023-01-29T13:34:30;100904.75;;;3.67;65.98
58070;BME280;43863;52.256;21.048;2023-01-29T13:40:39;100899.13;;;3.49;66.64
58070;BME280;43863;52.256;21.048;2023-01-29T13:43:21;100888.06;;;3.56;66.52
58070;BME280;43863;52.256;21.048;2023-01-29T13:45:51;100881.00;;;3.57;66.34
58070;BME280;43863;52.256;21.048;2023-01-29T13:48:28;100859.50;;;3.63;66.10
58070;BME280;43863;52.256;21.048;2023-01-29T13:51:13;100866.31;;;3.54;66.13
58070;BME280;43863;52.256;21.048;2023-01-29T13:54:12;100877.66;;;3.44;66.42
58070;BME280;43863;52.256;21.048;2023-01-29T13:56:58;100878.38;;;3.34;66.88
58070;BME280;43863;52.256;21.048;2023-01-29T13:59:50;100875.25;;;3.52;66.96
58070;BME280;43863;52.256;21.048;2023-01-29T14:02:27;100882.91;;;3.66;66.74
58070;BME280;43863;52.256;21.048;2023-01-29T14:11:27;100895.41;;;3.29;67.65
58070;BME280;43863;52.256;21.048;2023-01-29T14:13:57;100900.72;;;3.05;68.02
58070;BME280;43863;52.256;21.048;2023-01-29T14:16:32;100911.81;;;3.08;68.13
58070;BME280;43863;52.256;21.048;2023-01-29T14:19:03;100915.63;;;3.04;68.18
58070;BME280;43863;52.256;21.048;2023-01-29T14:21:36;100909.91;;;3.10;68.35
58070;BME280;43863;52.256;21.048;2023-01-29T14:24:22;100915.50;;;3.06;68.15
58070;BME280;43863;52.256;21.048;2023-01-29T14:30:07;100906.31;;;3.00;68.28
58070;BME280;43863;52.256;21.048;2023-01-29T14:32:45;100894.75;;;3.03;68.32
58070;BME280;43863;52.256;21.048;2023-01-29T14:38:18;100887.97;;;3.11;68.17
58070;BME280;43863;52.256;21.048;2023-01-29T14:50:42;100863.50;;;3.00;68.49
58070;BME280;43863;52.256;21.048;2023-01-29T14:56:35;100870.16;;;3.04;68.59
58070;BME280;43863;52.256;21.048;2023-01-29T15:05:07;100885.41;;;2.87;69.11
58070;BME280;43863;52.256;21.048;2023-01-29T15:07:43;100876.09;;;2.94;69.38
58070;BME280;43863;52.256;21.048;2023-01-29T15:10:27;100874.72;;;3.13;69.08
58070;BME280;43863;52.256;21.048;2023-01-29T15:13:13;100865.56;;;3.18;68.89
58070;BME280;43863;52.256;21.048;2023-01-29T15:15:56;100852.19;;;3.22;68.69
58070;BME280;43863;52.256;21.048;2023-01-29T15:18:40;100858.03;;;3.25;68.58
58070;BME280;43863;52.256;21.048;2023-01-29T15:24:46;100843.34;;;3.11;68.63
58070;BME280;43863;52.256;21.048;2023-01-29T15:30:37;100843.19;;;3.02;69.27
58070;BME280;43863;52.256;21.048;2023-01-29T15:33:30;100834.66;;;3.11;69.30
58070;BME280;43863;52.256;21.048;2023-01-29T15:36:01;100835.47;;;3.11;69.12
58070;BME280;43863;52.256;21.048;2023-01-29T15:38:35;100836.31;;;3.12;69.29
58070;BME280;43863;52.256;21.048;2023-01-29T15:41:19;100828.31;;;3.25;69.20
58070;BME280;43863;52.256;21.048;2023-01-29T15:43:51;100823.06;;;3.25;69.14
58070;BME280;43863;52.256;21.048;2023-01-29T15:53:46;100838.13;;;3.34;69.37
58070;BME280;43863;52.256;21.048;2023-01-29T15:56:23;100823.31;;;3.22;69.32
58070;BME280;43863;52.256;21.048;2023-01-29T15:58:51;100822.38;;;3.23;69.31
58070;BME280;43863;52.256;21.048;2023-01-29T16:01:20;100818.44;;;3.17;69.62
58070;BME280;43863;52.256;21.048;2023-01-29T16:10:32;100821.28;;;3.25;70.20
58070;BME280;43863;52.256;21.048;2023-01-29T16:16:24;100824.78;;;3.26;70.31
58070;BME280;43863;52.256;21.048;2023-01-29T16:18:53;100821.16;;;3.15;70.59
58070;BME280;43863;52.256;21.048;2023-01-29T16:24:07;100832.38;;;3.17;70.67
58070;BME280;43863;52.256;21.048;2023-01-29T16:26:58;100823.69;;;3.17;70.67
58070;BME280;43863;52.256;21.048;2023-01-29T16:29:31;100831.31;;;3.20;70.93
58070;BME280;43863;52.256;21.048;2023-01-29T16:32:01;100832.16;;;3.21;70.81
58070;BME280;43863;52.256;21.048;2023-01-29T16:34:42;100828.47;;;3.23;71.07
58070;BME280;43863;52.256;21.048;2023-01-29T16:37:28;100828.72;;;3.31;70.99
58070;BME280;43863;52.256;21.048;2023-01-29T16:39:58;100830.63;;;3.40;70.78
58070;BME280;43863;52.256;21.048;2023-01-29T16:46:44;100835.13;;;3.27;70.83
58070;BME280;43863;52.256;21.048;2023-01-29T16:54:42;100842.91;;;3.29;71.62
58070;BME280;43863;52.256;21.048;2023-01-29T16:57:24;100833.34;;;3.28;72.18
58070;BME280;43863;52.256;21.048;2023-01-29T16:59:55;100835.28;;;3.26;72.47
58070;BME280;43863;52.256;21.048;2023-01-29T17:05:29;100818.28;;;3.07;72.75
58070;BME280;43863;52.256;21.048;2023-01-29T17:07:58;100820.16;;;2.94;73.18
58070;BME280;43863;52.256;21.048;2023-01-29T17:13:37;100813.50;;;3.01;73.33
58070;BME280;43863;52.256;21.048;2023-01-29T17:16:22;100804.09;;;3.10;73.20
58070;BME280;43863;52.256;21.048;2023-01-29T17:18:52;100798.81;;;2.99;73.47
58070;BME280;43863;52.256;21.048;2023-01-29T17:24:27;100790.63;;;3.14;73.18
58070;BME280;43863;52.256;21.048;2023-01-29T17:26:56;100792.19;;;3.17;72.88
58070;BME280;43863;52.256;21.048;2023-01-29T17:29:30;100788.84;;;3.26;72.89
58070;BME280;43863;52.256;21.048;2023-01-29T17:35:12;100781.91;;;3.36;72.52
58070;BME280;43863;52.256;21.048;2023-01-29T17:37:41;100772.63;;;3.32;72.91
58070;BME280;43863;52.256;21.048;2023-01-29T17:40:17;100769.75;;;3.24;73.03
58070;BME280;43863;52.256;21.048;2023-01-29T17:42:57;100759.59;;;3.19;72.96
58070;BME280;43863;52.256;21.048;2023-01-29T17:45:46;100750.88;;;3.19;73.05
58070;BME280;43863;52.256;21.048;2023-01-29T17:48:26;100749.31;;;3.28;72.71
58070;BME280;43863;52.256;21.048;2023-01-29T17:50:59;100748.50;;;3.38;72.47
58070;BME280;43863;52.256;21.048;2023-01-29T17:53:34;100743.09;;;3.40;72.29
58070;BME280;43863;52.256;21.048;2023-01-29T17:56:21;100733.72;;;3.37;72.19
58070;BME280;43863;52.256;21.048;2023-01-29T17:58:50;100721.66;;;3.35;72.34
58070;BME280;43863;52.256;21.048;2023-01-29T18:01:18;100723.91;;;3.28;72.52
58070;BME280;43863;52.256;21.048;2023-01-29T18:03:49;100722.97;;;3.29;72.47
58070;BME280;43863;52.256;21.048;2023-01-29T18:06:27;100719.84;;;3.24;72.31
58070;BME280;43863;52.256;21.048;2023-01-29T18:12:45;100689.53;;;3.42;71.39
58070;BME280;43863;52.256;21.048;2023-01-29T18:15:17;100686.56;;;3.36;71.12
58070;BME280;43863;52.256;21.048;2023-01-29T18:17:59;100676.19;;;3.34;71.00
58070;BME280;43863;52.256;21.048;2023-01-29T18:20:32;100674.38;;;3.35;71.06
58070;BME280;43863;52.256;21.048;2023-01-29T18:25:57;100689.19;;;3.36;70.71
58070;BME280;43863;52.256;21.048;2023-01-29T18:28:32;100670.56;;;3.39;70.50
58070;BME280;43863;52.256;21.048;2023-01-29T18:31:01;100691.69;;;3.37;70.63
58070;BME280;43863;52.256;21.048;2023-01-29T18:33:30;100680.69;;;3.44;70.66
58070;BME280;43863;52.256;21.048;2023-01-29T18:36:01;100680.81;;;3.42;70.41
58070;BME280;43863;52.256;21.048;2023-01-29T18:38:49;100671.63;;;3.36;70.71
58070;BME280;43863;52.256;21.048;2023-01-29T18:41:17;100678.91;;;3.44;70.63
58070;BME280;43863;52.256;21.048;2023-01-29T18:43:46;100673.25;;;3.49;70.53
58070;BME280;43863;52.256;21.048;2023-01-29T18:46:17;100685.97;;;3.32;70.64
58070;BME280;43863;52.256;21.048;2023-01-29T18:48:45;100680.81;;;3.31;71.08
58070;BME280;43863;52.256;21.048;2023-01-29T18:54:35;100669.97;;;3.35;70.79
58070;BME280;43863;52.256;21.048;2023-01-29T18:57:05;100665.19;;;3.40;70.72
58070;BME280;43863;52.256;21.048;2023-01-29T18:59:41;100667.81;;;3.40;70.60
58070;BME280;43863;52.256;21.048;2023-01-29T19:02:15;100662.06;;;3.47;70.39
58070;BME280;43863;52.256;21.048;2023-01-29T19:07:44;100662.28;;;3.55;70.26
58070;BME280;43863;52.256;21.048;2023-01-29T19:10:17;100666.59;;;3.56;69.93
58070;BME280;43863;52.256;21.048;2023-01-29T19:12:45;100661.19;;;3.57;69.80
58070;BME280;43863;52.256;21.048;2023-01-29T19:15:15;100654.13;;;3.58;69.81
58070;BME280;43863;52.256;21.048;2023-01-29T19:17:49;100660.13;;;3.60;69.71
58070;BME280;43863;52.256;21.048;2023-01-29T19:20:17;100658.31;;;3.60;69.46
58070;BME280;43863;52.256;21.048;2023-01-29T19:22:46;100662.25;;;3.66;69.45
58070;BME280;43863;52.256;21.048;2023-01-29T19:25:16;100651.72;;;3.66;69.71
58070;BME280;43863;52.256;21.048;2023-01-29T19:27:48;100648.31;;;3.54;70.02
58070;BME280;43863;52.256;21.048;2023-01-29T19:30:18;100648.31;;;3.54;70.14
58070;BME280;43863;52.256;21.048;2023-01-29T19:32:46;100638.63;;;3.55;69.94
58070;BME280;43863;52.256;21.048;2023-01-29T19:35:15;100632.97;;;3.38;70.07
58070;BME280;43863;52.256;21.048;2023-01-29T19:37:45;100631.41;;;3.36;70.67
58070;BME280;43863;52.256;21.048;2023-01-29T19:40:24;100627.81;;;3.37;70.53
58070;BME280;43863;52.256;21.048;2023-01-29T19:42:56;100619.03;;;3.27;70.53
58070;BME280;43863;52.256;21.048;2023-01-29T19:45:28;100625.09;;;3.27;70.97
58070;BME280;43863;52.256;21.048;2023-01-29T19:48:36;100616.38;;;3.38;70.99
58070;BME280;43863;52.256;21.048;2023-01-29T19:54:12;100620.56;;;3.40;70.47
58070;BME280;43863;52.256;21.048;2023-01-29T19:56:40;100610.91;;;3.30;70.51
58070;BME280;43863;52.256;21.048;2023-01-29T19:59:12;100613.88;;;3.25;70.50
58070;BME280;43863;52.256;21.048;2023-01-29T20:01:41;100608.78;;;3.12;70.96
58070;BME280;43863;52.256;21.048;2023-01-29T20:04:11;100601.72;;;3.24;71.02
58070;BME280;43863;52.256;21.048;2023-01-29T20:06:39;100612.31;;;3.34;70.77
58070;BME280;43863;52.256;21.048;2023-01-29T20:09:07;100605.41;;;3.33;70.84
58070;BME280;43863;52.256;21.048;2023-01-29T20:11:35;100594.53;;;3.37;70.59
58070;BME280;43863;52.256;21.048;2023-01-29T20:14:03;100596.06;;;3.40;70.63
58070;BME280;43863;52.256;21.048;2023-01-29T20:16:32;100578.28;;;3.44;70.75
58070;BME280;43863;52.256;21.048;2023-01-29T20:19:00;100569.66;;;3.53;70.61
58070;BME280;43863;52.256;21.048;2023-01-29T20:21:41;100577.28;;;3.56;70.44
58070;BME280;43863;52.256;21.048;2023-01-29T20:24:13;100573.72;;;3.46;70.64
58070;BME280;43863;52.256;21.048;2023-01-29T20:26:41;100569.75;;;3.51;70.40
58070;BME280;43863;52.256;21.048;2023-01-29T20:29:09;100571.00;;;3.47;70.55
58070;BME280;43863;52.256;21.048;2023-01-29T20:31:38;100565.09;;;3.55;70.35
58070;BME280;43863;52.256;21.048;2023-01-29T20:34:06;100559.47;;;3.59;70.05
58070;BME280;43863;52.256;21.048;2023-01-29T20:36:34;100549.97;;;3.47;70.11
58070;BME280;43863;52.256;21.048;2023-01-29T20:39:06;100554.97;;;3.50;70.08
58070;BME280;43863;52.256;21.048;2023-01-29T20:41:38;100545.19;;;3.52;70.20
58070;BME280;43863;52.256;21.048;2023-01-29T20:44:14;100530.47;;;3.61;70.34
58070;BME280;43863;52.256;21.048;2023-01-29T20:46:42;100522.91;;;3.68;69.94
58070;BME280;43863;52.256;21.048;2023-01-29T20:49:12;100528.78;;;3.60;69.78
58070;BME280;43863;52.256;21.048;2023-01-29T20:51:43;100527.63;;;3.53;69.82
58070;BME280;43863;52.256;21.048;2023-01-29T20:54:13;100524.69;;;3.46;69.87
58070;BME280;43863;52.256;21.048;2023-01-29T20:56:42;100512.38;;;3.47;70.01
58070;BME280;43863;52.256;21.048;2023-01-29T20:59:14;100517.25;;;3.51;69.97
58070;BME280;43863;52.256;21.048;2023-01-29T21:01:43;100520.00;;;3.50;70.08
58070;BME280;43863;52.256;21.048;2023-01-29T21:04:10;100506.09;;;3.59;69.91
58070;BME280;43863;52.256;21.048;2023-01-29T21:06:38;100510.03;;;3.64;69.74
58070;BME280;43863;52.256;21.048;2023-01-29T21:09:07;100498.28;;;3.69;69.75
58070;BME280;43863;52.256;21.048;2023-01-29T21:11:35;100506.63;;;3.74;69.42
58070;BME280;43863;52.256;21.048;2023-01-29T21:14:04;100509.06;;;3.65;69.44
58070;BME280;43863;52.256;21.048;2023-01-29T21:16:33;100513.06;;;3.70;69.77
58070;BME280;43863;52.256;21.048;2023-01-29T21:19:01;100504.09;;;3.72;69.52
58070;BME280;43863;52.256;21.048;2023-01-29T21:21:35;100505.72;;;3.63;69.66
58070;BME280;43863;52.256;21.048;2023-01-29T21:24:04;100499.63;;;3.63;69.84
58070;BME280;43863;52.256;21.048;2023-01-29T21:26:40;100504.09;;;3.72;69.78
58070;BME280;43863;52.256;21.048;2023-01-29T21:29:09;100499.94;;;3.70;69.75
58070;BME280;43863;52.256;21.048;2023-01-29T21:31:46;100495.13;;;3.75;69.82
58070;BME280;43863;52.256;21.048;2023-01-29T21:34:15;100494.50;;;3.82;69.92
58070;BME280;43863;52.256;21.048;2023-01-29T21:36:49;100499.56;;;3.95;69.71
58070;BME280;43863;52.256;21.048;2023-01-29T21:39:31;100487.13;;;3.97;69.66
58070;BME280;43863;52.256;21.048;2023-01-29T21:41:59;100486.94;;;3.89;69.79
58070;BME280;43863;52.256;21.048;2023-01-29T21:44:46;100493.53;;;3.83;69.82
58070;BME280;43863;52.256;21.048;2023-01-29T21:47:18;100483.28;;;3.80;69.88
58070;BME280;43863;52.256;21.048;2023-01-29T21:52:35;100475.28;;;3.82;69.62
58070;BME280;43863;52.256;21.048;2023-01-29T21:55:11;100470.56;;;3.76;69.92
58070;BME280;43863;52.256;21.048;2023-01-29T22:00:52;100451.63;;;3.82;69.64
58070;BME280;43863;52.256;21.048;2023-01-29T22:04:03;100448.50;;;3.88;69.77
58070;BME280;43863;52.256;21.048;2023-01-29T22:06:34;100450.72;;;3.93;69.72
58070;BME280;43863;52.256;21.048;2023-01-29T22:09:02;100454.44;;;3.90;69.78
58070;BME280;43863;52.256;21.048;2023-01-29T22:11:36;100446.69;;;3.88;69.52
